Ryland, Alabama
Current Conditions -  °F | °C
As of 10:55 AM on Sunday 23 Nov 2014 (Local Time) from KMDQ Reporting Station
Overcast Overcast  
Wind Chill: 13°   Ceiling: 1300
Heat Index: 13°   Visibility: 10mi
Dew Point: 10°   Wind: 12mph
Humidity: 82%   Direction: 130°SE
Pressure: 29.77"   Gusts: 16mph
Location:  34.77°N, 86.48°W
Report Text: KMDQ 231655Z AUTO 13010G14KT 10SM OVC013 13/10 A2977 RMK AO2
Loading
Personal Weather Stations






























Interactive Weather Map New forecast layout! Learn more

10-Day Weather Forecast

Advertisements
Track Severe Weather on mobile